sensor_id;sensor_type;location;lat;lon;timestamp;pressure;altitude;pressure_sealevel;temperature
14666;BMP280;7420;53.574;10.040;2023-04-03T00:01:11;54231.31;;;-136.87
14666;BMP280;7420;53.574;10.040;2023-04-03T00:03:36;54231.31;;;-136.87
14666;BMP280;7420;53.574;10.040;2023-04-03T00:06:02;54231.31;;;-136.87
14666;BMP280;7420;53.574;10.040;2023-04-03T00:08:28;54229.28;;;-136.87
14666;BMP280;7420;53.574;10.040;2023-04-03T00:10:56;54231.31;;;-136.87
14666;BMP280;7420;53.574;10.040;2023-04-03T00:13:21;54233.38;;;-136.87
14666;BMP280;7420;53.574;10.040;2023-04-03T00:15:47;54231.31;;;-136.87
14666;BMP280;7420;53.574;10.040;2023-04-03T00:18:12;54229.28;;;-136.87
14666;BMP280;7420;53.574;10.040;2023-04-03T00:20:37;54229.28;;;-136.87
14666;BMP280;7420;53.574;10.040;2023-04-03T00:23:03;54229.28;;;-136.87
14666;BMP280;7420;53.574;10.040;2023-04-03T00:25:28;54233.38;;;-136.87
14666;BMP280;7420;53.574;10.040;2023-04-03T00:27:54;54231.31;;;-136.87
14666;BMP280;7420;53.574;10.040;2023-04-03T00:30:21;54231.31;;;-136.87
14666;BMP280;7420;53.574;10.040;2023-04-03T00:32:50;54233.38;;;-136.87
14666;BMP280;7420;53.574;10.040;2023-04-03T00:35:17;54233.38;;;-136.87
14666;BMP280;7420;53.574;10.040;2023-04-03T00:37:46;54231.31;;;-136.87
14666;BMP280;7420;53.574;10.040;2023-04-03T00:40:13;54231.31;;;-136.87
14666;BMP280;7420;53.574;10.040;2023-04-03T00:42:41;54229.28;;;-136.87
14666;BMP280;7420;53.574;10.040;2023-04-03T00:47:37;54229.28;;;-136.87
14666;BMP280;7420;53.574;10.040;2023-04-03T00:50:04;54229.28;;;-136.87
14666;BMP280;7420;53.574;10.040;2023-04-03T00:52:30;54233.38;;;-136.87
14666;BMP280;7420;53.574;10.040;2023-04-03T00:55:04;54231.31;;;-136.87
14666;BMP280;7420;53.574;10.040;2023-04-03T00:57:30;54233.38;;;-136.87
14666;BMP280;7420;53.574;10.040;2023-04-03T01:00:03;54229.28;;;-136.87
14666;BMP280;7420;53.574;10.040;2023-04-03T01:02:29;54233.38;;;-136.87
14666;BMP280;7420;53.574;10.040;2023-04-03T01:04:55;54231.31;;;-136.87
14666;BMP280;7420;53.574;10.040;2023-04-03T01:07:29;54229.28;;;-136.87
14666;BMP280;7420;53.574;10.040;2023-04-03T01:10:01;54229.28;;;-136.87
14666;BMP280;7420;53.574;10.040;2023-04-03T01:12:29;54229.28;;;-136.87
14666;BMP280;7420;53.574;10.040;2023-04-03T01:15:07;54229.28;;;-136.87
14666;BMP280;7420;53.574;10.040;2023-04-03T01:25:30;54229.28;;;-136.87
14666;BMP280;7420;53.574;10.040;2023-04-03T01:27:56;54229.28;;;-136.87
14666;BMP280;7420;53.574;10.040;2023-04-03T01:30:25;54229.28;;;-136.87
14666;BMP280;7420;53.574;10.040;2023-04-03T01:32:53;54229.28;;;-136.87
14666;BMP280;7420;53.574;10.040;2023-04-03T01:35:18;54231.31;;;-136.87
14666;BMP280;7420;53.574;10.040;2023-04-03T01:37:44;54229.28;;;-136.87
14666;BMP280;7420;53.574;10.040;2023-04-03T01:40:09;54231.31;;;-136.87
14666;BMP280;7420;53.574;10.040;2023-04-03T01:42:35;54229.28;;;-136.87
14666;BMP280;7420;53.574;10.040;2023-04-03T01:45:00;54233.38;;;-136.87
14666;BMP280;7420;53.574;10.040;2023-04-03T01:47:25;54229.28;;;-136.87
14666;BMP280;7420;53.574;10.040;2023-04-03T01:49:51;54229.28;;;-136.87
14666;BMP280;7420;53.574;10.040;2023-04-03T01:52:16;54233.38;;;-136.87
14666;BMP280;7420;53.574;10.040;2023-04-03T01:54:41;54229.28;;;-136.87
14666;BMP280;7420;53.574;10.040;2023-04-03T01:57:07;54231.31;;;-136.87
14666;BMP280;7420;53.574;10.040;2023-04-03T01:59:32;54231.31;;;-136.87
14666;BMP280;7420;53.574;10.040;2023-04-03T02:01:58;54231.31;;;-136.87
14666;BMP280;7420;53.574;10.040;2023-04-03T02:04:23;54229.28;;;-136.87
14666;BMP280;7420;53.574;10.040;2023-04-03T02:06:49;54229.28;;;-136.87
14666;BMP280;7420;53.574;10.040;2023-04-03T02:09:14;54229.28;;;-136.87
14666;BMP280;7420;53.574;10.040;2023-04-03T02:11:39;54229.28;;;-136.87
14666;BMP280;7420;53.574;10.040;2023-04-03T02:14:05;54229.28;;;-136.87
14666;BMP280;7420;53.574;10.040;2023-04-03T02:16:31;54229.28;;;-136.87
14666;BMP280;7420;53.574;10.040;2023-04-03T02:18:56;54233.38;;;-136.87
14666;BMP280;7420;53.574;10.040;2023-04-03T02:21:22;54229.28;;;-136.87
14666;BMP280;7420;53.574;10.040;2023-04-03T02:23:47;54231.31;;;-136.87
14666;BMP280;7420;53.574;10.040;2023-04-03T02:26:14;54231.31;;;-136.87
14666;BMP280;7420;53.574;10.040;2023-04-03T02:28:40;54233.38;;;-136.87
14666;BMP280;7420;53.574;10.040;2023-04-03T02:31:06;54229.28;;;-136.87
14666;BMP280;7420;53.574;10.040;2023-04-03T02:33:32;54233.38;;;-136.87
14666;BMP280;7420;53.574;10.040;2023-04-03T02:35:58;54229.28;;;-136.87
14666;BMP280;7420;53.574;10.040;2023-04-03T02:38:24;54229.28;;;-136.87
14666;BMP280;7420;53.574;10.040;2023-04-03T02:40:50;54233.38;;;-136.87
14666;BMP280;7420;53.574;10.040;2023-04-03T02:43:16;54229.28;;;-136.87
14666;BMP280;7420;53.574;10.040;2023-04-03T02:45:41;54229.28;;;-136.87
14666;BMP280;7420;53.574;10.040;2023-04-03T02:48:07;54229.28;;;-136.87
14666;BMP280;7420;53.574;10.040;2023-04-03T02:50:32;54233.38;;;-136.87
14666;BMP280;7420;53.574;10.040;2023-04-03T02:52:57;54229.28;;;-136.87
14666;BMP280;7420;53.574;10.040;2023-04-03T02:55:23;54229.28;;;-136.87
14666;BMP280;7420;53.574;10.040;2023-04-03T02:57:48;54229.28;;;-136.87
14666;BMP280;7420;53.574;10.040;2023-04-03T03:00:14;54231.31;;;-136.87
14666;BMP280;7420;53.574;10.040;2023-04-03T03:02:39;54229.28;;;-136.87
14666;BMP280;7420;53.574;10.040;2023-04-03T03:05:05;54225.19;;;-136.87
14666;BMP280;7420;53.574;10.040;2023-04-03T03:07:31;54229.28;;;-136.87
14666;BMP280;7420;53.574;10.040;2023-04-03T03:09:57;54227.25;;;-136.87
14666;BMP280;7420;53.574;10.040;2023-04-03T03:12:22;54229.28;;;-136.87
14666;BMP280;7420;53.574;10.040;2023-04-03T03:14:49;54229.28;;;-136.87
14666;BMP280;7420;53.574;10.040;2023-04-03T03:17:15;54231.31;;;-136.87
14666;BMP280;7420;53.574;10.040;2023-04-03T03:19:40;54233.38;;;-136.87
14666;BMP280;7420;53.574;10.040;2023-04-03T03:22:05;54229.28;;;-136.87
14666;BMP280;7420;53.574;10.040;2023-04-03T03:24:31;54229.28;;;-136.87
14666;BMP280;7420;53.574;10.040;2023-04-03T03:26:57;54231.31;;;-136.87
14666;BMP280;7420;53.574;10.040;2023-04-03T03:29:23;54231.31;;;-136.87
14666;BMP280;7420;53.574;10.040;2023-04-03T03:31:48;54229.28;;;-136.87
14666;BMP280;7420;53.574;10.040;2023-04-03T03:34:13;54231.31;;;-136.87
14666;BMP280;7420;53.574;10.040;2023-04-03T03:36:39;54231.31;;;-136.87
14666;BMP280;7420;53.574;10.040;2023-04-03T03:39:05;54229.28;;;-136.87
14666;BMP280;7420;53.574;10.040;2023-04-03T03:41:31;54229.28;;;-136.87
14666;BMP280;7420;53.574;10.040;2023-04-03T03:43:56;54229.28;;;-136.87
14666;BMP280;7420;53.574;10.040;2023-04-03T03:46:22;54229.28;;;-136.87
14666;BMP280;7420;53.574;10.040;2023-04-03T03:48:47;54231.31;;;-136.87
14666;BMP280;7420;53.574;10.040;2023-04-03T03:51:13;54229.28;;;-136.87
14666;BMP280;7420;53.574;10.040;2023-04-03T03:53:38;54229.28;;;-136.87
14666;BMP280;7420;53.574;10.040;2023-04-03T03:56:04;54229.28;;;-136.87
14666;BMP280;7420;53.574;10.040;2023-04-03T03:58:29;54229.28;;;-136.87
14666;BMP280;7420;53.574;10.040;2023-04-03T04:00:55;54227.25;;;-136.87
14666;BMP280;7420;53.574;10.040;2023-04-03T04:03:20;54231.31;;;-136.87
14666;BMP280;7420;53.574;10.040;2023-04-03T04:05:46;54229.28;;;-136.87
14666;BMP280;7420;53.574;10.040;2023-04-03T04:08:11;54231.31;;;-136.87
14666;BMP280;7420;53.574;10.040;2023-04-03T04:10:37;54229.28;;;-136.87
14666;BMP280;7420;53.574;10.040;2023-04-03T04:13:02;54227.25;;;-136.87
14666;BMP280;7420;53.574;10.040;2023-04-03T04:15:28;54229.28;;;-136.87
14666;BMP280;7420;53.574;10.040;2023-04-03T04:17:54;54225.19;;;-136.87
14666;BMP280;7420;53.574;10.040;2023-04-03T04:20:19;54229.28;;;-136.87
14666;BMP280;7420;53.574;10.040;2023-04-03T04:22:45;54227.25;;;-136.87
14666;BMP280;7420;53.574;10.040;2023-04-03T04:25:10;54229.28;;;-136.87
14666;BMP280;7420;53.574;10.040;2023-04-03T04:27:35;54227.25;;;-136.87
14666;BMP280;7420;53.574;10.040;2023-04-03T04:30:02;54227.25;;;-136.87
14666;BMP280;7420;53.574;10.040;2023-04-03T04:32:28;54229.28;;;-136.87
14666;BMP280;7420;53.574;10.040;2023-04-03T04:34:53;54227.25;;;-136.87
14666;BMP280;7420;53.574;10.040;2023-04-03T04:37:19;54229.28;;;-136.87
14666;BMP280;7420;53.574;10.040;2023-04-03T04:39:44;54231.31;;;-136.87
14666;BMP280;7420;53.574;10.040;2023-04-03T04:44:55;54229.28;;;-136.87
14666;BMP280;7420;53.574;10.040;2023-04-03T04:47:20;54227.25;;;-136.87
14666;BMP280;7420;53.574;10.040;2023-04-03T04:49:46;54227.25;;;-136.87
14666;BMP280;7420;53.574;10.040;2023-04-03T04:52:12;54231.31;;;-136.87
14666;BMP280;7420;53.574;10.040;2023-04-03T04:54:38;54231.31;;;-136.87
14666;BMP280;7420;53.574;10.040;2023-04-03T04:57:03;54227.25;;;-136.87
14666;BMP280;7420;53.574;10.040;2023-04-03T04:59:28;54225.19;;;-136.87
14666;BMP280;7420;53.574;10.040;2023-04-03T05:01:54;54229.28;;;-136.87
14666;BMP280;7420;53.574;10.040;2023-04-03T05:04:19;54231.31;;;-136.87
14666;BMP280;7420;53.574;10.040;2023-04-03T05:06:45;54229.28;;;-136.87
14666;BMP280;7420;53.574;10.040;2023-04-03T05:09:10;54229.28;;;-136.87
14666;BMP280;7420;53.574;10.040;2023-04-03T05:11:36;54233.38;;;-136.87
14666;BMP280;7420;53.574;10.040;2023-04-03T05:14:01;54225.19;;;-136.87
14666;BMP280;7420;53.574;10.040;2023-04-03T05:16:26;54229.28;;;-136.87
14666;BMP280;7420;53.574;10.040;2023-04-03T05:18:52;54229.28;;;-136.87
14666;BMP280;7420;53.574;10.040;2023-04-03T05:21:17;54229.28;;;-136.87
14666;BMP280;7420;53.574;10.040;2023-04-03T05:23:48;54229.28;;;-136.87
14666;BMP280;7420;53.574;10.040;2023-04-03T05:26:13;54229.28;;;-136.87
14666;BMP280;7420;53.574;10.040;2023-04-03T05:28:39;54227.25;;;-136.87
14666;BMP280;7420;53.574;10.040;2023-04-03T05:31:04;54227.25;;;-136.87
14666;BMP280;7420;53.574;10.040;2023-04-03T05:33:30;54229.28;;;-136.87
14666;BMP280;7420;53.574;10.040;2023-04-03T05:35:55;54229.28;;;-136.87
14666;BMP280;7420;53.574;10.040;2023-04-03T05:38:20;54229.28;;;-136.87
14666;BMP280;7420;53.574;10.040;2023-04-03T05:40:46;54227.25;;;-136.87
14666;BMP280;7420;53.574;10.040;2023-04-03T05:43:12;54225.19;;;-136.87
14666;BMP280;7420;53.574;10.040;2023-04-03T05:45:37;54233.38;;;-136.87
14666;BMP280;7420;53.574;10.040;2023-04-03T05:48:03;54233.38;;;-136.87
14666;BMP280;7420;53.574;10.040;2023-04-03T05:50:28;54229.28;;;-136.87
14666;BMP280;7420;53.574;10.040;2023-04-03T05:52:56;54231.31;;;-136.87
14666;BMP280;7420;53.574;10.040;2023-04-03T05:55:22;54229.28;;;-136.87
14666;BMP280;7420;53.574;10.040;2023-04-03T05:57:47;54227.25;;;-136.87
14666;BMP280;7420;53.574;10.040;2023-04-03T06:00:14;54227.25;;;-136.87
14666;BMP280;7420;53.574;10.040;2023-04-03T06:02:41;54231.31;;;-136.87
14666;BMP280;7420;53.574;10.040;2023-04-03T06:05:07;54225.19;;;-136.87
14666;BMP280;7420;53.574;10.040;2023-04-03T06:07:33;54229.28;;;-136.87
14666;BMP280;7420;53.574;10.040;2023-04-03T06:09:59;54229.28;;;-136.87
14666;BMP280;7420;53.574;10.040;2023-04-03T06:12:25;54225.19;;;-136.87
14666;BMP280;7420;53.574;10.040;2023-04-03T06:14:51;54229.28;;;-136.87
14666;BMP280;7420;53.574;10.040;2023-04-03T06:17:16;54225.19;;;-136.87
14666;BMP280;7420;53.574;10.040;2023-04-03T06:19:43;54229.28;;;-136.87
14666;BMP280;7420;53.574;10.040;2023-04-03T06:22:08;54229.28;;;-136.87
14666;BMP280;7420;53.574;10.040;2023-04-03T06:24:33;54229.28;;;-136.87
14666;BMP280;7420;53.574;10.040;2023-04-03T06:26:59;54229.28;;;-136.87
14666;BMP280;7420;53.574;10.040;2023-04-03T06:29:25;54229.28;;;-136.87
14666;BMP280;7420;53.574;10.040;2023-04-03T06:31:51;54229.28;;;-136.87
14666;BMP280;7420;53.574;10.040;2023-04-03T06:34:17;54227.25;;;-136.87
14666;BMP280;7420;53.574;10.040;2023-04-03T06:36:44;54227.25;;;-136.87
14666;BMP280;7420;53.574;10.040;2023-04-03T06:39:15;54227.25;;;-136.87
14666;BMP280;7420;53.574;10.040;2023-04-03T06:41:41;54225.19;;;-136.87
14666;BMP280;7420;53.574;10.040;2023-04-03T06:44:06;54229.28;;;-136.87
14666;BMP280;7420;53.574;10.040;2023-04-03T06:46:33;54227.25;;;-136.87
14666;BMP280;7420;53.574;10.040;2023-04-03T06:48:58;54227.25;;;-136.87
14666;BMP280;7420;53.574;10.040;2023-04-03T06:51:28;54227.25;;;-136.87
14666;BMP280;7420;53.574;10.040;2023-04-03T06:53:57;54227.25;;;-136.87
14666;BMP280;7420;53.574;10.040;2023-04-03T06:56:24;54225.19;;;-136.87
14666;BMP280;7420;53.574;10.040;2023-04-03T06:58:50;54227.25;;;-136.87
14666;BMP280;7420;53.574;10.040;2023-04-03T07:01:17;54225.19;;;-136.87
14666;BMP280;7420;53.574;10.040;2023-04-03T07:03:46;54229.28;;;-136.87
14666;BMP280;7420;53.574;10.040;2023-04-03T07:06:12;54227.25;;;-136.87
14666;BMP280;7420;53.574;10.040;2023-04-03T07:08:38;54225.19;;;-136.87
14666;BMP280;7420;53.574;10.040;2023-04-03T07:11:05;54229.28;;;-136.87
14666;BMP280;7420;53.574;10.040;2023-04-03T07:13:31;54225.19;;;-136.87
14666;BMP280;7420;53.574;10.040;2023-04-03T07:15:56;54229.28;;;-136.87
14666;BMP280;7420;53.574;10.040;2023-04-03T07:18:23;54225.19;;;-136.87
14666;BMP280;7420;53.574;10.040;2023-04-03T07:20:48;54229.28;;;-136.87
14666;BMP280;7420;53.574;10.040;2023-04-03T07:23:14;54225.19;;;-136.87
14666;BMP280;7420;53.574;10.040;2023-04-03T07:25:47;54225.19;;;-136.87
14666;BMP280;7420;53.574;10.040;2023-04-03T07:28:13;54225.19;;;-136.87
14666;BMP280;7420;53.574;10.040;2023-04-03T07:30:46;54225.19;;;-136.87
14666;BMP280;7420;53.574;10.040;2023-04-03T07:33:13;54227.25;;;-136.87
14666;BMP280;7420;53.574;10.040;2023-04-03T07:35:39;54225.19;;;-136.87
14666;BMP280;7420;53.574;10.040;2023-04-03T07:38:04;54223.16;;;-136.87
14666;BMP280;7420;53.574;10.040;2023-04-03T07:40:31;54229.28;;;-136.87
14666;BMP280;7420;53.574;10.040;2023-04-03T07:42:56;54225.19;;;-136.87
14666;BMP280;7420;53.574;10.040;2023-04-03T07:45:22;54225.19;;;-136.87
14666;BMP280;7420;53.574;10.040;2023-04-03T07:47:48;54227.25;;;-136.87
14666;BMP280;7420;53.574;10.040;2023-04-03T07:50:13;54229.28;;;-136.87
14666;BMP280;7420;53.574;10.040;2023-04-03T07:52:39;54225.19;;;-136.87
14666;BMP280;7420;53.574;10.040;2023-04-03T07:55:05;54225.19;;;-136.87
14666;BMP280;7420;53.574;10.040;2023-04-03T07:57:31;54225.19;;;-136.87
14666;BMP280;7420;53.574;10.040;2023-04-03T07:59:56;54225.19;;;-136.87
14666;BMP280;7420;53.574;10.040;2023-04-03T08:02:22;54225.19;;;-136.87
14666;BMP280;7420;53.574;10.040;2023-04-03T08:04:47;54225.19;;;-136.87
14666;BMP280;7420;53.574;10.040;2023-04-03T08:07:12;54225.19;;;-136.87
14666;BMP280;7420;53.574;10.040;2023-04-03T08:09:38;54225.19;;;-136.87
14666;BMP280;7420;53.574;10.040;2023-04-03T08:12:03;54227.25;;;-136.87
14666;BMP280;7420;53.574;10.040;2023-04-03T08:14:33;54223.16;;;-136.87
14666;BMP280;7420;53.574;10.040;2023-04-03T08:17:02;54225.19;;;-136.87
14666;BMP280;7420;53.574;10.040;2023-04-03T08:19:29;54225.19;;;-136.87
14666;BMP280;7420;53.574;10.040;2023-04-03T08:21:56;54223.16;;;-136.87
14666;BMP280;7420;53.574;10.040;2023-04-03T08:24:24;54225.19;;;-136.87
14666;BMP280;7420;53.574;10.040;2023-04-03T08:26:49;54229.28;;;-136.87
14666;BMP280;7420;53.574;10.040;2023-04-03T08:29:15;54225.19;;;-136.87
14666;BMP280;7420;53.574;10.040;2023-04-03T08:31:40;54223.16;;;-136.87
14666;BMP280;7420;53.574;10.040;2023-04-03T08:34:06;54227.25;;;-136.87
14666;BMP280;7420;53.574;10.040;2023-04-03T08:36:31;54225.19;;;-136.87
14666;BMP280;7420;53.574;10.040;2023-04-03T08:38:57;54225.19;;;-136.87
14666;BMP280;7420;53.574;10.040;2023-04-03T08:47:11;54225.19;;;-136.87
14666;BMP280;7420;53.574;10.040;2023-04-03T08:49:56;54225.19;;;-136.87
14666;BMP280;7420;53.574;10.040;2023-04-03T08:52:50;54227.25;;;-136.87
14666;BMP280;7420;53.574;10.040;2023-04-03T08:55:43;54225.19;;;-136.87
14666;BMP280;7420;53.574;10.040;2023-04-03T08:58:15;54225.19;;;-136.87
14666;BMP280;7420;53.574;10.040;2023-04-03T09:00:49;54225.19;;;-136.87
14666;BMP280;7420;53.574;10.040;2023-04-03T09:03:17;54223.16;;;-136.87
14666;BMP280;7420;53.574;10.040;2023-04-03T09:05:48;54225.19;;;-136.87
14666;BMP280;7420;53.574;10.040;2023-04-03T09:10:49;54223.16;;;-136.87
14666;BMP280;7420;53.574;10.040;2023-04-03T09:13:23;54225.19;;;-136.87
14666;BMP280;7420;53.574;10.040;2023-04-03T09:15:50;54227.25;;;-136.87
14666;BMP280;7420;53.574;10.040;2023-04-03T09:18:45;54225.19;;;-136.87
14666;BMP280;7420;53.574;10.040;2023-04-03T09:23:47;54223.16;;;-136.87
14666;BMP280;7420;53.574;10.040;2023-04-03T09:26:24;54223.16;;;-136.87
14666;BMP280;7420;53.574;10.040;2023-04-03T09:28:58;54225.19;;;-136.87
14666;BMP280;7420;53.574;10.040;2023-04-03T09:31:46;54225.19;;;-136.87
14666;BMP280;7420;53.574;10.040;2023-04-03T09:34:28;54225.19;;;-136.87
14666;BMP280;7420;53.574;10.040;2023-04-03T09:36:59;54225.19;;;-136.87
14666;BMP280;7420;53.574;10.040;2023-04-03T09:39:31;54223.16;;;-136.87
14666;BMP280;7420;53.574;10.040;2023-04-03T09:42:05;54225.19;;;-136.87
14666;BMP280;7420;53.574;10.040;2023-04-03T09:44:37;54223.16;;;-136.87
14666;BMP280;7420;53.574;10.040;2023-04-03T09:47:34;54225.19;;;-136.87
14666;BMP280;7420;53.574;10.040;2023-04-03T09:52:38;54225.19;;;-136.87
14666;BMP280;7420;53.574;10.040;2023-04-03T09:55:25;54225.19;;;-136.87
14666;BMP280;7420;53.574;10.040;2023-04-03T09:58:02;54225.19;;;-136.87
14666;BMP280;7420;53.574;10.040;2023-04-03T10:02:57;54223.16;;;-136.87
14666;BMP280;7420;53.574;10.040;2023-04-03T10:05:40;54227.25;;;-136.87
14666;BMP280;7420;53.574;10.040;2023-04-03T10:10:44;54227.25;;;-136.87
14666;BMP280;7420;53.574;10.040;2023-04-03T10:15:46;54225.19;;;-136.87
14666;BMP280;7420;53.574;10.040;2023-04-03T10:18:45;54225.19;;;-136.87
14666;BMP280;7420;53.574;10.040;2023-04-03T10:21:40;54225.19;;;-136.87
14666;BMP280;7420;53.574;10.040;2023-04-03T10:24:13;54225.19;;;-136.87
14666;BMP280;7420;53.574;10.040;2023-04-03T10:29:40;54223.16;;;-136.87
14666;BMP280;7420;53.574;10.040;2023-04-03T10:35:10;54221.13;;;-136.87
14666;BMP280;7420;53.574;10.040;2023-04-03T10:37:50;54225.19;;;-136.87
14666;BMP280;7420;53.574;10.040;2023-04-03T10:40:41;54223.16;;;-136.87
14666;BMP280;7420;53.574;10.040;2023-04-03T10:46:02;54221.13;;;-136.87
14666;BMP280;7420;53.574;10.040;2023-04-03T10:51:42;54225.19;;;-136.87
14666;BMP280;7420;53.574;10.040;2023-04-03T10:54:29;54225.19;;;-136.87
14666;BMP280;7420;53.574;10.040;2023-04-03T10:57:00;54223.16;;;-136.87
14666;BMP280;7420;53.574;10.040;2023-04-03T10:59:31;54223.16;;;-136.87
14666;BMP280;7420;53.574;10.040;2023-04-03T11:02:01;54225.19;;;-136.87
14666;BMP280;7420;53.574;10.040;2023-04-03T11:04:31;54221.13;;;-136.87
14666;BMP280;7420;53.574;10.040;2023-04-03T11:07:08;54221.13;;;-136.87
14666;BMP280;7420;53.574;10.040;2023-04-03T11:09:37;54225.19;;;-136.87
14666;BMP280;7420;53.574;10.040;2023-04-03T11:12:11;54225.19;;;-136.87
14666;BMP280;7420;53.574;10.040;2023-04-03T11:14:38;54223.16;;;-136.87
14666;BMP280;7420;53.574;10.040;2023-04-03T11:19:52;54221.13;;;-136.87
14666;BMP280;7420;53.574;10.040;2023-04-03T11:22:23;54221.13;;;-136.87
14666;BMP280;7420;53.574;10.040;2023-04-03T11:25:02;54221.13;;;-136.87
14666;BMP280;7420;53.574;10.040;2023-04-03T11:27:33;54221.13;;;-136.87
14666;BMP280;7420;53.574;10.040;2023-04-03T11:30:02;54227.25;;;-136.87
14666;BMP280;7420;53.574;10.040;2023-04-03T11:35:08;54223.16;;;-136.87
14666;BMP280;7420;53.574;10.040;2023-04-03T11:37:46;54225.19;;;-136.87
14666;BMP280;7420;53.574;10.040;2023-04-03T11:42:42;54225.19;;;-136.87
14666;BMP280;7420;53.574;10.040;2023-04-03T11:45:28;54225.19;;;-136.87
14666;BMP280;7420;53.574;10.040;2023-04-03T11:50:45;54225.19;;;-136.87
14666;BMP280;7420;53.574;10.040;2023-04-03T11:55:52;54225.19;;;-136.87
14666;BMP280;7420;53.574;10.040;2023-04-03T11:58:27;54225.19;;;-136.87
14666;BMP280;7420;53.574;10.040;2023-04-03T12:00:57;54225.19;;;-136.87
14666;BMP280;7420;53.574;10.040;2023-04-03T12:16:33;54225.19;;;-136.87
14666;BMP280;7420;53.574;10.040;2023-04-03T12:42:39;54227.25;;;-136.87
14666;BMP280;7420;53.574;10.040;2023-04-03T12:45:19;54223.16;;;-136.87
14666;BMP280;7420;53.574;10.040;2023-04-03T12:47:49;54223.16;;;-136.87
14666;BMP280;7420;53.574;10.040;2023-04-03T12:50:22;54223.16;;;-136.87
14666;BMP280;7420;53.574;10.040;2023-04-03T12:53:05;54219.06;;;-136.87
14666;BMP280;7420;53.574;10.040;2023-04-03T12:55:31;54225.19;;;-136.87
14666;BMP280;7420;53.574;10.040;2023-04-03T12:57:57;54225.19;;;-136.87
14666;BMP280;7420;53.574;10.040;2023-04-03T13:02:51;54221.13;;;-136.87
14666;BMP280;7420;53.574;10.040;2023-04-03T13:05:18;54221.13;;;-136.87
14666;BMP280;7420;53.574;10.040;2023-04-03T13:07:44;54225.19;;;-136.87
14666;BMP280;7420;53.574;10.040;2023-04-03T13:10:18;54225.19;;;-136.87
14666;BMP280;7420;53.574;10.040;2023-04-03T13:12:49;54223.16;;;-136.87
14666;BMP280;7420;53.574;10.040;2023-04-03T13:15:24;54223.16;;;-136.87
14666;BMP280;7420;53.574;10.040;2023-04-03T13:17:50;54223.16;;;-136.87
14666;BMP280;7420;53.574;10.040;2023-04-03T13:22:52;54223.16;;;-136.87
14666;BMP280;7420;53.574;10.040;2023-04-03T13:25:21;54225.19;;;-136.87
14666;BMP280;7420;53.574;10.040;2023-04-03T13:27:47;54221.13;;;-136.87
14666;BMP280;7420;53.574;10.040;2023-04-03T13:30:31;54223.16;;;-136.87
14666;BMP280;7420;53.574;10.040;2023-04-03T13:33:01;54221.13;;;-136.87
14666;BMP280;7420;53.574;10.040;2023-04-03T13:35:39;54223.16;;;-136.87
14666;BMP280;7420;53.574;10.040;2023-04-03T13:38:26;54225.19;;;-136.87
14666;BMP280;7420;53.574;10.040;2023-04-03T13:40:56;54221.13;;;-136.87
14666;BMP280;7420;53.574;10.040;2023-04-03T13:43:26;54225.19;;;-136.87
14666;BMP280;7420;53.574;10.040;2023-04-03T13:45:59;54223.16;;;-136.87
14666;BMP280;7420;53.574;10.040;2023-04-03T13:48:25;54225.19;;;-136.87
14666;BMP280;7420;53.574;10.040;2023-04-03T13:50:54;54223.16;;;-136.87
14666;BMP280;7420;53.574;10.040;2023-04-03T13:53:21;54223.16;;;-136.87
14666;BMP280;7420;53.574;10.040;2023-04-03T13:58:30;54221.13;;;-136.87
14666;BMP280;7420;53.574;10.040;2023-04-03T14:03:46;54223.16;;;-136.87
14666;BMP280;7420;53.574;10.040;2023-04-03T14:06:14;54225.19;;;-136.87
14666;BMP280;7420;53.574;10.040;2023-04-03T14:08:40;54223.16;;;-136.87
14666;BMP280;7420;53.574;10.040;2023-04-03T14:11:12;54221.13;;;-136.87
14666;BMP280;7420;53.574;10.040;2023-04-03T14:13:41;54223.16;;;-136.87
14666;BMP280;7420;53.574;10.040;2023-04-03T14:16:06;54225.19;;;-136.87
14666;BMP280;7420;53.574;10.040;2023-04-03T14:18:32;54223.16;;;-136.87
14666;BMP280;7420;53.574;10.040;2023-04-03T14:20:57;54223.16;;;-136.87
14666;BMP280;7420;53.574;10.040;2023-04-03T14:23:23;54221.13;;;-136.87
14666;BMP280;7420;53.574;10.040;2023-04-03T14:25:48;54225.19;;;-136.87
14666;BMP280;7420;53.574;10.040;2023-04-03T14:28:18;54221.13;;;-136.87
14666;BMP280;7420;53.574;10.040;2023-04-03T14:30:45;54221.13;;;-136.87
14666;BMP280;7420;53.574;10.040;2023-04-03T14:33:18;54223.16;;;-136.87
14666;BMP280;7420;53.574;10.040;2023-04-03T14:35:47;54223.16;;;-136.87
14666;BMP280;7420;53.574;10.040;2023-04-03T14:38:27;54221.13;;;-136.87
14666;BMP280;7420;53.574;10.040;2023-04-03T14:40:53;54221.13;;;-136.87
14666;BMP280;7420;53.574;10.040;2023-04-03T14:43:19;54223.16;;;-136.87
14666;BMP280;7420;53.574;10.040;2023-04-03T14:45:46;54223.16;;;-136.87
14666;BMP280;7420;53.574;10.040;2023-04-03T14:48:21;54221.13;;;-136.87
14666;BMP280;7420;53.574;10.040;2023-04-03T14:50:48;54223.16;;;-136.87
14666;BMP280;7420;53.574;10.040;2023-04-03T14:53:15;54221.13;;;-136.87
14666;BMP280;7420;53.574;10.040;2023-04-03T14:55:45;54221.13;;;-136.87
14666;BMP280;7420;53.574;10.040;2023-04-03T14:58:18;54219.06;;;-136.87
14666;BMP280;7420;53.574;10.040;2023-04-03T15:00:44;54221.13;;;-136.87
14666;BMP280;7420;53.574;10.040;2023-04-03T15:03:14;54219.06;;;-136.87
14666;BMP280;7420;53.574;10.040;2023-04-03T15:05:40;54221.13;;;-136.87
14666;BMP280;7420;53.574;10.040;2023-04-03T15:08:13;54217.03;;;-136.87
14666;BMP280;7420;53.574;10.040;2023-04-03T15:10:42;54223.16;;;-136.87
14666;BMP280;7420;53.574;10.040;2023-04-03T15:13:08;54221.13;;;-136.87
14666;BMP280;7420;53.574;10.040;2023-04-03T15:15:36;54221.13;;;-136.87
14666;BMP280;7420;53.574;10.040;2023-04-03T15:18:01;54221.13;;;-136.87
14666;BMP280;7420;53.574;10.040;2023-04-03T15:20:28;54223.16;;;-136.87
14666;BMP280;7420;53.574;10.040;2023-04-03T15:22:55;54223.16;;;-136.87
14666;BMP280;7420;53.574;10.040;2023-04-03T15:25:26;54221.13;;;-136.87
14666;BMP280;7420;53.574;10.040;2023-04-03T15:27:53;54223.16;;;-136.87
14666;BMP280;7420;53.574;10.040;2023-04-03T15:30:18;54221.13;;;-136.87
14666;BMP280;7420;53.574;10.040;2023-04-03T15:32:45;54221.13;;;-136.87
14666;BMP280;7420;53.574;10.040;2023-04-03T15:35:11;54223.16;;;-136.87
14666;BMP280;7420;53.574;10.040;2023-04-03T15:37:36;54225.19;;;-136.87